Time;durP1;ratioP1;P1;durP2;ratioP2;P2;SDS_P1;SDS_P2;PMS_P1;PMS_P2;Temp;Humidity;BMP_temperature;BMP_pressure;BME280_temperature;BME280_humidity;BME280_pressure;Samples;Min_cycle;Max_cycle;Signal;HPM_P1;HPM_P2
2023/08/11 00:01:14;;;;;;;5.47;4.83;;;9.30;99.90;;;;;;5111363;28;20230;-67
2023/08/11 00:04:01;;;;;;;8.10;5.10;;;9.30;99.90;;;;;;5111419;28;20198;-67
2023/08/11 00:06:49;;;;;;;7.47;5.03;;;9.30;99.90;;;;;;5112503;28;20195;-67
2023/08/11 00:09:37;;;;;;;9.87;4.87;;;9.20;99.90;;;;;;5112215;28;20563;-67
2023/08/11 00:12:25;;;;;;;14.07;5.10;;;9.20;99.90;;;;;;5112079;28;20201;-67
2023/08/11 00:15:12;;;;;;;8.10;4.90;;;9.20;99.90;;;;;;5111274;28;20203;-67
2023/08/11 00:18:00;;;;;;;7.57;5.17;;;9.20;99.90;;;;;;5112176;28;20562;-67
2023/08/11 00:20:47;;;;;;;11.30;5.70;;;9.20;99.90;;;;;;5111264;28;20198;-66
2023/08/11 00:23:35;;;;;;;9.37;5.07;;;9.20;99.90;;;;;;5111869;28;20210;-66
2023/08/11 00:26:24;;;;;;;10.23;5.47;;;9.20;99.90;;;;;;5111618;28;20272;-66
2023/08/11 00:29:12;;;;;;;8.70;6.20;;;9.20;99.90;;;;;;5111405;28;20690;-67
2023/08/11 00:31:59;;;;;;;7.77;5.93;;;9.20;99.90;;;;;;5111309;28;20244;-67
2023/08/11 00:34:47;;;;;;;10.27;5.90;;;9.20;99.90;;;;;;5111761;28;20211;-67
2023/08/11 00:37:34;;;;;;;11.70;6.70;;;9.10;99.90;;;;;;5111120;28;20215;-67
2023/08/11 00:40:22;;;;;;;12.53;7.03;;;9.20;99.90;;;;;;5111127;28;20196;-67
2023/08/11 00:43:11;;;;;;;10.40;7.10;;;9.20;99.90;;;;;;5111586;28;20206;-66
2023/08/11 00:45:59;;;;;;;11.03;6.53;;;9.10;99.90;;;;;;5111499;28;20195;-67
2023/08/11 00:48:50;;;;;;;10.17;6.97;;;9.10;99.90;;;;;;5110938;28;20192;-67
2023/08/11 00:51:38;;;;;;;12.73;7.10;;;9.10;99.90;;;;;;5111087;28;20341;-67
2023/08/11 00:54:26;;;;;;;12.50;7.90;;;9.10;99.90;;;;;;5110598;28;20195;-68
2023/08/11 00:57:14;;;;;;;14.50;8.00;;;9.00;99.90;;;;;;5109330;28;20207;-67
2023/08/11 01:00:11;;;;;;;13.20;7.80;;;9.10;99.90;;;;;;5110431;28;20280;-67
2023/08/11 01:02:58;;;;;;;15.00;8.03;;;9.00;99.90;;;;;;5111909;28;20206;-67
2023/08/11 01:05:56;;;;;;;16.87;8.13;;;9.00;99.90;;;;;;5111460;28;20307;-67
2023/08/11 01:08:56;;;;;;;14.20;8.83;;;9.00;99.90;;;;;;5111432;28;20570;-67
2023/08/11 01:11:49;;;;;;;13.63;8.63;;;9.00;99.90;;;;;;5111537;28;20196;-67
2023/08/11 01:14:39;;;;;;;14.47;8.70;;;9.00;99.90;;;;;;5111233;28;20325;-67
2023/08/11 01:17:28;;;;;;;16.53;9.17;;;8.90;99.90;;;;;;5110565;28;20272;-67
2023/08/11 01:20:16;;;;;;;14.40;9.27;;;8.90;99.90;;;;;;5111012;28;20199;-67
2023/08/11 01:23:04;;;;;;;14.07;8.50;;;8.90;99.90;;;;;;5110557;28;20200;-67
2023/08/11 01:25:53;;;;;;;14.83;7.87;;;8.90;99.90;;;;;;5111199;28;20687;-67
2023/08/11 01:28:42;;;;;;;13.73;8.50;;;8.90;99.90;;;;;;5110250;28;20195;-68
2023/08/11 01:31:29;;;;;;;16.30;9.80;;;8.90;99.90;;;;;;5111296;28;20208;-67
2023/08/11 01:34:16;;;;;;;23.80;9.93;;;8.90;99.90;;;;;;5110998;28;20195;-67
2023/08/11 01:37:04;;;;;;;19.83;10.07;;;8.90;99.90;;;;;;5111616;28;20559;-67
2023/08/11 01:39:51;;;;;;;16.70;10.37;;;8.90;99.90;;;;;;5110975;28;20686;-67
2023/08/11 01:42:40;;;;;;;14.00;9.83;;;8.90;99.90;;;;;;5110416;28;20191;-67
2023/08/11 01:45:28;;;;;;;18.93;10.47;;;8.90;99.90;;;;;;5113948;28;20194;-67
2023/08/11 01:48:16;;;;;;;16.63;10.17;;;8.90;99.90;;;;;;5114348;28;20195;-67
2023/08/11 01:51:04;;;;;;;16.60;10.73;;;8.90;99.90;;;;;;5114957;28;20251;-67
2023/08/11 01:53:51;;;;;;;16.90;10.30;;;8.80;99.90;;;;;;5114736;28;20207;-67
2023/08/11 01:56:38;;;;;;;13.80;9.83;;;8.90;99.90;;;;;;5113952;28;20686;-67
2023/08/11 01:59:27;;;;;;;15.67;10.03;;;8.90;99.90;;;;;;5114073;28;20570;-67
2023/08/11 02:02:14;;;;;;;19.40;10.00;;;8.90;99.90;;;;;;5115652;28;20207;-67
2023/08/11 02:05:01;;;;;;;17.47;10.00;;;8.90;99.90;;;;;;5113761;28;20600;-67
2023/08/11 02:07:48;;;;;;;19.50;9.50;;;8.90;99.90;;;;;;5115076;28;20542;-67
2023/08/11 02:10:35;;;;;;;16.20;9.80;;;8.80;99.90;;;;;;5094113;28;20194;-67
2023/08/11 02:13:23;;;;;;;13.90;8.47;;;8.80;99.90;;;;;;5094090;28;20216;-67
2023/08/11 02:16:11;;;;;;;15.80;9.07;;;8.90;99.90;;;;;;5092993;28;20561;-67
2023/08/11 02:18:58;;;;;;;17.67;9.80;;;8.90;99.90;;;;;;5093916;28;20195;-67
2023/08/11 02:21:46;;;;;;;15.93;9.90;;;8.80;99.90;;;;;;5093985;28;20208;-67
2023/08/11 02:24:34;;;;;;;16.80;10.03;;;8.90;99.90;;;;;;5093061;28;20288;-67
2023/08/11 02:27:22;;;;;;;16.50;10.70;;;8.80;99.90;;;;;;5093949;28;20192;-67
2023/08/11 02:30:11;;;;;;;15.37;10.03;;;8.90;99.90;;;;;;5093499;28;20196;-67
2023/08/11 02:32:59;;;;;;;14.67;9.70;;;8.80;99.90;;;;;;5094305;28;20284;-67
2023/08/11 02:35:46;;;;;;;15.83;9.53;;;8.90;99.90;;;;;;5094360;28;20192;-67
2023/08/11 02:38:34;;;;;;;17.60;9.03;;;8.80;99.90;;;;;;5093244;28;20197;-67
2023/08/11 02:41:21;;;;;;;19.97;10.27;;;8.80;99.90;;;;;;5093431;28;20223;-67
2023/08/11 02:44:08;;;;;;;22.20;9.93;;;8.90;99.90;;;;;;5093400;28;20580;-67
2023/08/11 02:46:56;;;;;;;16.07;9.93;;;8.90;99.90;;;;;;5093400;28;20257;-67
2023/08/11 02:49:44;;;;;;;15.57;9.07;;;8.90;99.90;;;;;;5093912;28;20200;-68
2023/08/11 02:52:31;;;;;;;16.03;9.47;;;8.90;99.90;;;;;;5093201;28;20220;-67
2023/08/11 02:55:19;;;;;;;15.27;9.60;;;8.90;99.90;;;;;;5093027;28;20211;-67
2023/08/11 02:58:06;;;;;;;14.93;8.97;;;8.90;99.90;;;;;;5092924;28;20239;-67
2023/08/11 03:00:53;;;;;;;14.67;8.37;;;8.90;99.90;;;;;;5092992;28;20235;-67
2023/08/11 03:03:42;;;;;;;17.73;9.20;;;8.90;99.90;;;;;;5101294;28;20331;-67
2023/08/11 03:06:31;;;;;;;15.17;8.43;;;8.90;99.90;;;;;;5112821;28;20195;-67
2023/08/11 03:09:18;;;;;;;16.70;8.47;;;8.90;99.90;;;;;;5113125;28;20199;-67
2023/08/11 03:12:09;;;;;;;13.83;8.50;;;8.80;99.90;;;;;;5113193;28;20195;-67
2023/08/11 03:15:00;;;;;;;15.67;8.80;;;8.80;99.90;;;;;;5113264;28;20199;-67
2023/08/11 03:17:52;;;;;;;20.53;9.00;;;8.80;99.90;;;;;;5113013;28;20223;-67
2023/08/11 03:20:43;;;;;;;16.93;8.67;;;8.80;99.90;;;;;;5113012;28;20203;-67
2023/08/11 03:23:36;;;;;;;13.50;8.70;;;8.70;99.90;;;;;;5113059;28;20282;-67
2023/08/11 03:26:28;;;;;;;13.03;8.33;;;8.70;99.90;;;;;;5112896;28;20199;-67
2023/08/11 03:29:19;;;;;;;11.73;8.03;;;8.70;99.90;;;;;;5112926;28;20248;-67
2023/08/11 03:32:11;;;;;;;12.90;8.50;;;8.70;99.90;;;;;;5112919;28;20218;-67
2023/08/11 03:35:02;;;;;;;13.97;8.87;;;8.70;99.90;;;;;;5113051;28;20730;-67
2023/08/11 03:37:52;;;;;;;17.40;8.50;;;8.70;99.90;;;;;;5112791;28;20686;-67
2023/08/11 03:40:43;;;;;;;15.13;8.30;;;8.70;99.90;;;;;;5112618;28;20275;-67
2023/08/11 03:43:33;;;;;;;12.87;8.27;;;8.70;99.90;;;;;;5112791;28;20259;-67
2023/08/11 03:46:20;;;;;;;14.90;8.20;;;8.70;99.90;;;;;;5112517;28;20232;-67
2023/08/11 03:49:08;;;;;;;11.57;8.30;;;8.70;99.90;;;;;;5112463;28;20667;-67
2023/08/11 03:51:55;;;;;;;13.50;7.93;;;8.70;99.90;;;;;;5112010;28;20218;-67
2023/08/11 03:54:42;;;;;;;13.63;8.83;;;8.70;99.90;;;;;;5112211;28;20661;-67
2023/08/11 03:57:31;;;;;;;17.90;8.30;;;8.80;99.90;;;;;;5112210;28;20215;-67
2023/08/11 04:00:19;;;;;;;25.00;9.00;;;8.80;99.90;;;;;;5112100;28;20223;-67
2023/08/11 04:03:09;;;;;;;12.90;7.90;;;8.90;99.90;;;;;;5111504;28;20203;-68
2023/08/11 04:05:56;;;;;;;14.77;8.13;;;8.90;99.90;;;;;;5111811;28;20199;-67
2023/08/11 04:08:44;;;;;;;16.57;8.13;;;8.90;99.90;;;;;;5111279;28;20191;-67
2023/08/11 04:11:32;;;;;;;15.90;8.20;;;8.90;99.90;;;;;;5111297;28;20361;-67
2023/08/11 04:14:21;;;;;;;12.77;8.60;;;9.00;99.90;;;;;;5110898;28;20256;-67
2023/08/11 04:17:08;;;;;;;15.27;9.03;;;9.10;99.90;;;;;;5110740;28;20218;-67
2023/08/11 04:19:56;;;;;;;19.83;9.40;;;9.20;99.90;;;;;;5111698;28;20673;-67
2023/08/11 04:22:43;;;;;;;14.60;8.93;;;9.30;99.90;;;;;;5111479;28;20667;-67
2023/08/11 04:25:30;;;;;;;16.23;9.03;;;9.40;99.90;;;;;;5111162;28;20203;-67
2023/08/11 04:28:18;;;;;;;14.90;9.50;;;9.50;99.90;;;;;;5110587;28;20192;-67
2023/08/11 04:31:07;;;;;;;14.50;8.73;;;9.60;99.90;;;;;;5110436;28;20195;-67
2023/08/11 04:33:54;;;;;;;16.87;9.60;;;9.70;99.90;;;;;;5111408;28;20736;-67
2023/08/11 04:36:41;;;;;;;16.97;9.03;;;9.70;99.90;;;;;;5110354;28;20192;-67
2023/08/11 04:39:29;;;;;;;15.93;9.37;;;9.80;99.90;;;;;;5111243;28;20203;-67
2023/08/11 04:42:16;;;;;;;16.97;9.80;;;9.90;99.90;;;;;;5111503;28;20280;-67
2023/08/11 04:45:04;;;;;;;15.97;10.27;;;10.00;99.90;;;;;;5111007;28;20199;-67
2023/08/11 04:47:53;;;;;;;16.90;9.40;;;10.10;99.90;;;;;;5111094;28;20696;-67
2023/08/11 04:50:40;;;;;;;14.07;9.60;;;10.20;99.90;;;;;;5110840;28;20237;-67
2023/08/11 04:53:27;;;;;;;17.73;9.70;;;10.40;99.90;;;;;;5112075;28;20248;-67
2023/08/11 04:56:14;;;;;;;15.87;9.60;;;10.50;99.90;;;;;;5110921;28;20199;-67
2023/08/11 04:59:02;;;;;;;16.37;10.17;;;10.60;99.90;;;;;;5110421;28;20229;-68
2023/08/11 05:01:49;;;;;;;20.20;10.47;;;10.70;99.90;;;;;;5111743;28;20779;-67
2023/08/11 05:04:38;;;;;;;17.53;11.07;;;10.80;99.90;;;;;;5111374;28;20201;-67
2023/08/11 05:07:25;;;;;;;21.60;10.53;;;10.90;99.90;;;;;;5110734;28;20707;-67
2023/08/11 05:10:13;;;;;;;22.57;11.10;;;11.10;99.90;;;;;;5111195;28;20205;-67
2023/08/11 05:13:00;;;;;;;19.23;10.80;;;11.20;99.90;;;;;;5111459;28;20281;-67
2023/08/11 05:15:47;;;;;;;16.57;9.67;;;11.40;99.90;;;;;;5111237;28;20196;-67
2023/08/11 05:18:35;;;;;;;16.37;9.17;;;11.50;99.90;;;;;;5112970;28;20216;-67
2023/08/11 05:21:24;;;;;;;14.27;8.83;;;11.70;99.90;;;;;;5114712;28;20207;-67
2023/08/11 05:24:12;;;;;;;10.50;8.00;;;11.90;99.90;;;;;;5114841;28;20586;-67
2023/08/11 05:26:59;;;;;;;13.07;7.47;;;12.00;99.90;;;;;;5115143;28;20203;-67
2023/08/11 05:29:48;;;;;;;10.17;7.50;;;12.30;99.90;;;;;;5115138;28;20200;-67
2023/08/11 05:32:35;;;;;;;9.93;6.73;;;12.50;99.90;;;;;;5115364;28;20240;-67
2023/08/11 05:35:22;;;;;;;14.27;6.67;;;12.60;99.90;;;;;;5115087;28;20199;-67
2023/08/11 05:38:11;;;;;;;8.80;6.40;;;12.80;99.90;;;;;;5114389;28;20218;-67
2023/08/11 05:40:58;;;;;;;16.17;6.00;;;13.00;99.90;;;;;;5114878;28;20555;-67
2023/08/11 05:43:45;;;;;;;8.80;5.77;;;13.20;99.90;;;;;;5114359;28;20192;-67
2023/08/11 05:46:32;;;;;;;9.53;5.73;;;13.30;99.90;;;;;;5114973;28;20209;-67
2023/08/11 05:49:20;;;;;;;9.03;6.20;;;13.50;99.90;;;;;;5114934;28;20251;-67
2023/08/11 05:52:07;;;;;;;10.70;5.43;;;13.60;99.90;;;;;;5114821;28;20230;-67
2023/08/11 05:54:55;;;;;;;9.93;5.90;;;13.80;99.90;;;;;;5114578;28;20205;-67
2023/08/11 05:57:43;;;;;;;7.47;5.07;;;13.90;99.90;;;;;;5114646;28;20221;-67
2023/08/11 06:00:30;;;;;;;9.07;5.10;;;14.10;99.90;;;;;;5114587;28;20275;-66
2023/08/11 06:03:17;;;;;;;8.83;5.17;;;14.20;99.90;;;;;;5114211;28;20562;-67
2023/08/11 06:06:05;;;;;;;10.03;4.90;;;14.40;99.90;;;;;;5114411;28;20209;-67
2023/08/11 06:08:54;;;;;;;9.57;5.27;;;14.60;99.90;;;;;;5113672;28;20205;-66
2023/08/11 06:11:42;;;;;;;10.23;4.70;;;14.70;99.90;;;;;;5114114;28;20210;-66
2023/08/11 06:14:29;;;;;;;8.00;4.70;;;14.90;99.90;;;;;;5114428;28;20209;-67
2023/08/11 06:17:17;;;;;;;7.07;4.50;;;14.90;99.90;;;;;;5113814;28;20199;-67
2023/08/11 06:20:05;;;;;;;11.63;4.80;;;15.00;99.90;;;;;;5113860;28;20259;-67
2023/08/11 06:22:52;;;;;;;8.47;4.63;;;15.10;99.90;;;;;;5114227;28;20205;-67
2023/08/11 06:25:39;;;;;;;7.30;4.60;;;15.30;99.90;;;;;;5113447;28;20199;-67
2023/08/11 06:28:28;;;;;;;8.50;4.50;;;15.40;99.90;;;;;;5114023;28;20207;-67
2023/08/11 06:31:15;;;;;;;12.33;4.37;;;15.60;99.90;;;;;;5113386;28;20195;-67
2023/08/11 06:34:02;;;;;;;7.77;3.87;;;15.70;99.90;;;;;;5113390;28;20637;-67
2023/08/11 06:36:49;;;;;;;8.20;4.50;;;15.80;99.90;;;;;;5113883;28;20325;-67
2023/08/11 06:39:37;;;;;;;6.93;4.30;;;15.90;99.90;;;;;;5113545;28;20202;-67
2023/08/11 06:42:24;;;;;;;7.00;4.40;;;16.10;99.90;;;;;;5113932;28;20282;-67
2023/08/11 06:45:13;;;;;;;10.50;4.77;;;16.10;99.90;;;;;;5113023;28;20201;-67
2023/08/11 06:48:00;;;;;;;7.37;4.40;;;16.20;99.90;;;;;;5113736;28;20567;-66
2023/08/11 06:50:47;;;;;;;8.33;4.60;;;16.40;99.90;;;;;;5113001;28;20195;-67
2023/08/11 06:53:35;;;;;;;7.63;4.80;;;16.40;99.90;;;;;;5113786;28;20198;-67
2023/08/11 06:56:22;;;;;;;7.80;4.90;;;16.50;99.90;;;;;;5113672;28;20658;-67
2023/08/11 06:59:09;;;;;;;8.47;4.90;;;16.60;99.90;;;;;;5112612;28;20295;-66
2023/08/11 07:01:58;;;;;;;8.03;4.40;;;16.70;99.90;;;;;;5113304;28;20203;-66
2023/08/11 07:04:45;;;;;;;11.50;4.87;;;16.80;99.90;;;;;;5112895;28;20681;-66
2023/08/11 07:07:32;;;;;;;6.87;4.50;;;16.90;99.90;;;;;;5113299;28;20209;-66
2023/08/11 07:10:19;;;;;;;6.90;4.60;;;17.00;99.90;;;;;;5113091;28;20191;-67
2023/08/11 07:13:07;;;;;;;7.20;4.80;;;17.20;99.90;;;;;;5113886;28;20278;-67
2023/08/11 07:15:56;;;;;;;11.10;4.87;;;17.30;99.90;;;;;;5113857;28;20202;-66
2023/08/11 07:18:44;;;;;;;8.83;4.57;;;17.40;99.90;;;;;;5112342;28;20211;-67
2023/08/11 07:21:32;;;;;;;7.67;4.50;;;17.40;99.90;;;;;;5112587;28;20276;-67
2023/08/11 07:24:19;;;;;;;9.13;5.03;;;17.50;99.90;;;;;;5112965;28;20252;-67
2023/08/11 07:27:06;;;;;;;8.00;4.73;;;17.60;99.90;;;;;;5112908;28;20206;-68
2023/08/11 07:29:53;;;;;;;11.23;5.00;;;17.90;99.90;;;;;;5112787;28;20198;-66
2023/08/11 07:32:41;;;;;;;10.23;5.13;;;18.20;99.90;;;;;;5112854;28;20198;-67
2023/08/11 07:35:30;;;;;;;8.67;4.60;;;18.50;99.90;;;;;;5112762;28;20245;-67
2023/08/11 07:38:19;;;;;;;6.97;4.73;;;18.40;99.90;;;;;;5112594;28;20615;-67
2023/08/11 07:41:06;;;;;;;9.13;5.10;;;18.80;99.90;;;;;;5112515;28;20204;-67
2023/08/11 07:43:54;;;;;;;7.63;4.60;;;19.00;99.90;;;;;;5112668;28;20571;-66
2023/08/11 07:46:41;;;;;;;7.07;4.40;;;19.20;99.90;;;;;;5112784;28;20296;-66
2023/08/11 07:49:28;;;;;;;10.10;4.23;;;19.30;99.90;;;;;;5112359;28;20543;-67
2023/08/11 07:52:17;;;;;;;10.30;4.27;;;19.40;99.90;;;;;;5111701;28;20215;-66
2023/08/11 07:55:05;;;;;;;9.23;4.40;;;19.20;99.90;;;;;;5111794;28;20195;-66
2023/08/11 07:57:52;;;;;;;8.23;4.00;;;19.20;99.90;;;;;;5112224;28;20539;-67
2023/08/11 08:00:39;;;;;;;6.40;3.50;;;19.30;99.90;;;;;;5112050;28;20735;-66
2023/08/11 08:03:26;;;;;;;9.87;3.60;;;19.70;99.90;;;;;;5111594;28;20210;-66
2023/08/11 08:06:14;;;;;;;7.83;4.70;;;20.00;99.90;;;;;;5111653;28;20206;-67
2023/08/11 08:09:03;;;;;;;7.23;3.27;;;20.20;99.90;;;;;;5112726;28;20579;-66
2023/08/11 08:11:50;;;;;;;9.63;3.47;;;20.20;99.90;;;;;;5111961;28;20199;-67
2023/08/11 08:14:38;;;;;;;4.83;3.27;;;20.10;99.90;;;;;;5112404;28;20201;-66
2023/08/11 08:17:25;;;;;;;7.77;3.43;;;20.20;99.90;;;;;;5111583;28;20229;-67
2023/08/11 08:20:13;;;;;;;5.57;3.10;;;19.90;99.90;;;;;;5111809;28;20533;-67
2023/08/11 08:23:00;;;;;;;7.23;3.10;;;20.20;99.90;;;;;;5111378;28;20394;-66
2023/08/11 08:25:49;;;;;;;7.73;3.47;;;19.90;99.70;;;;;;5112086;28;20199;-66
2023/08/11 08:28:37;;;;;;;7.47;3.27;;;20.40;99.90;;;;;;5111269;28;20195;-66
2023/08/11 08:31:24;;;;;;;8.57;3.87;;;20.50;98.10;;;;;;5111928;28;20676;-67
2023/08/11 08:34:11;;;;;;;7.53;2.93;;;20.70;99.90;;;;;;5111610;28;20199;-67
2023/08/11 08:36:58;;;;;;;6.20;2.73;;;20.90;99.90;;;;;;5111672;28;20238;-67
2023/08/11 08:39:45;;;;;;;7.67;3.40;;;20.80;87.60;;;;;;5111115;28;20230;-67
2023/08/11 08:42:34;;;;;;;8.00;3.40;;;20.80;92.60;;;;;;5111189;28;20603;-66
2023/08/11 08:45:21;;;;;;;7.47;3.37;;;21.20;94.00;;;;;;5111624;28;20199;-66
2023/08/11 08:48:10;;;;;;;5.33;2.93;;;21.30;90.30;;;;;;5111017;28;20195;-67
2023/08/11 08:50:57;;;;;;;5.17;3.17;;;21.40;92.90;;;;;;5110871;28;20195;-67
2023/08/11 08:53:44;;;;;;;9.43;3.83;;;21.50;95.70;;;;;;5111141;28;20572;-66
2023/08/11 08:56:32;;;;;;;5.10;2.67;;;21.50;91.60;;;;;;5111766;28;20585;-66
2023/08/11 08:59:20;;;;;;;5.77;3.00;;;21.20;90.00;;;;;;5111012;28;20214;-66
2023/08/11 09:02:08;;;;;;;4.03;2.53;;;21.40;95.60;;;;;;5111642;28;20630;-67
2023/08/11 09:04:55;;;;;;;6.33;2.83;;;21.60;92.10;;;;;;5111374;28;20683;-66
2023/08/11 09:07:43;;;;;;;7.30;2.70;;;21.50;89.60;;;;;;5110555;28;20624;-66
2023/08/11 09:10:30;;;;;;;5.77;2.93;;;21.50;76.90;;;;;;5111307;28;20195;-67
2023/08/11 09:13:17;;;;;;;6.17;2.80;;;22.00;83.40;;;;;;5111270;28;20250;-66
2023/08/11 09:16:06;;;;;;;5.87;2.70;;;21.90;75.10;;;;;;5110747;28;20195;-66
2023/08/11 09:18:53;;;;;;;3.83;2.40;;;21.90;76.50;;;;;;5110634;28;20211;-67
2023/08/11 09:21:41;;;;;;;4.13;2.70;;;22.40;76.20;;;;;;5110722;28;20210;-67
2023/08/11 09:24:30;;;;;;;8.70;2.93;;;22.20;71.40;;;;;;5111269;28;20654;-66
2023/08/11 09:27:17;;;;;;;4.77;1.83;;;22.70;72.20;;;;;;5111106;28;20203;-66
2023/08/11 09:30:06;;;;;;;3.63;2.00;;;22.00;64.10;;;;;;5110962;28;20187;-67
2023/08/11 09:32:55;;;;;;;6.00;1.90;;;22.10;72.50;;;;;;5110769;28;20553;-66
2023/08/11 09:35:42;;;;;;;4.03;1.90;;;22.70;69.70;;;;;;5111223;28;20206;-67
2023/08/11 09:38:30;;;;;;;3.55;1.92;;;23.20;59.80;;;;;;5110320;28;20215;-67
2023/08/11 09:41:18;;;;;;;4.70;2.15;;;23.20;61.30;;;;;;5111066;28;20598;-66
2023/08/11 09:44:06;;;;;;;5.18;1.80;;;22.60;61.70;;;;;;5110959;28;20199;-67
2023/08/11 09:46:53;;;;;;;3.80;2.00;;;22.70;60.70;;;;;;5110912;28;20207;-67
2023/08/11 09:49:42;;;;;;;6.20;2.20;;;23.00;63.60;;;;;;5111002;28;20192;-66
2023/08/11 09:52:29;;;;;;;5.07;2.17;;;23.20;64.80;;;;;;5109870;28;20705;-66
2023/08/11 09:55:23;;;;;;;3.97;1.80;;;23.50;64.20;;;;;;5110473;28;20199;-66
2023/08/11 09:58:10;;;;;;;3.65;2.00;;;23.50;63.10;;;;;;5110845;28;20199;-66
2023/08/11 10:00:58;;;;;;;5.18;2.10;;;23.10;65.80;;;;;;5110855;28;20239;-66
2023/08/11 10:03:47;;;;;;;4.45;1.90;;;23.60;64.30;;;;;;5110705;28;20191;-66
2023/08/11 10:06:36;;;;;;;3.45;1.90;;;23.50;57.50;;;;;;5114528;28;20253;-66
2023/08/11 10:09:24;;;;;;;4.93;2.00;;;23.80;65.60;;;;;;5114563;28;20199;-66
2023/08/11 10:12:11;;;;;;;2.95;2.13;;;23.80;56.60;;;;;;5113970;28;20202;-67
2023/08/11 10:14:59;;;;;;;4.65;1.85;;;23.70;61.50;;;;;;5114481;28;20665;-66
2023/08/11 10:17:47;;;;;;;4.97;2.00;;;23.50;59.70;;;;;;5114158;28;20206;-66
2023/08/11 10:20:34;;;;;;;3.47;1.50;;;24.00;61.60;;;;;;5114502;28;20223;-66
2023/08/11 10:23:23;;;;;;;2.88;1.73;;;24.00;55.50;;;;;;5113643;28;20676;-66
2023/08/11 10:26:10;;;;;;;7.20;2.03;;;24.00;60.00;;;;;;5113734;28;20199;-67
2023/08/11 10:28:57;;;;;;;4.05;1.90;;;24.10;57.40;;;;;;5113967;28;20274;-66
2023/08/11 10:31:54;;;;;;;5.95;1.60;;;24.10;55.10;;;;;;5113488;28;20376;-66
2023/08/11 10:34:41;;;;;;;2.72;1.80;;;24.20;54.60;;;;;;5113444;28;20584;-66
2023/08/11 10:37:30;;;;;;;5.05;2.20;;;24.60;52.40;;;;;;5114330;28;20198;-66
2023/08/11 10:40:27;;;;;;;5.20;2.00;;;24.80;54.30;;;;;;5113129;28;20218;-66
2023/08/11 10:43:17;;;;;;;5.47;1.80;;;24.50;52.90;;;;;;5113380;28;20707;-66
2023/08/11 10:46:18;;;;;;;2.88;1.80;;;24.80;61.00;;;;;;5113469;28;20200;-66
2023/08/11 10:49:20;;;;;;;3.03;1.83;;;24.90;52.90;;;;;;5114013;28;20203;-67
2023/08/11 10:52:07;;;;;;;2.75;1.70;;;25.10;52.00;;;;;;5113078;28;20215;-68
2023/08/11 10:54:59;;;;;;;2.45;1.55;;;24.90;48.70;;;;;;5113619;28;20210;-67
2023/08/11 10:58:09;;;;;;;5.05;1.88;;;24.70;50.60;;;;;;5113756;28;20200;-67
2023/08/11 11:00:57;;;;;;;2.78;1.83;;;25.20;54.70;;;;;;5113428;28;20227;-67
2023/08/11 11:03:45;;;;;;;2.67;1.60;;;25.60;51.30;;;;;;5113465;28;20337;-67
2023/08/11 11:06:39;;;;;;;4.55;1.98;;;25.70;53.40;;;;;;5113533;28;20200;-68
2023/08/11 11:09:29;;;;;;;2.67;2.08;;;25.30;50.40;;;;;;5112716;28;20541;-67
2023/08/11 11:12:25;;;;;;;4.15;2.00;;;25.30;50.90;;;;;;5113158;28;20199;-67
2023/08/11 11:15:15;;;;;;;3.53;1.90;;;25.30;54.10;;;;;;5112516;28;20205;-68
2023/08/11 11:18:02;;;;;;;5.20;1.73;;;25.60;51.70;;;;;;5113482;28;20199;-69
2023/08/11 11:20:49;;;;;;;3.97;1.88;;;25.50;48.20;;;;;;5113091;28;20215;-70
2023/08/11 11:23:37;;;;;;;2.50;1.50;;;24.80;49.50;;;;;;5113229;28;20274;-70
2023/08/11 11:26:42;;;;;;;2.28;1.58;;;24.80;49.30;;;;;;5113135;28;20234;-68
2023/08/11 11:29:30;;;;;;;2.25;1.58;;;25.20;50.20;;;;;;5112800;28;20195;-66
2023/08/11 11:32:19;;;;;;;2.38;1.60;;;24.20;47.80;;;;;;5112134;28;20196;-68
2023/08/11 11:35:07;;;;;;;2.38;1.80;;;24.40;46.80;;;;;;5112933;28;20191;-67
2023/08/11 11:37:55;;;;;;;2.60;1.60;;;24.60;48.90;;;;;;5112953;28;20609;-67
2023/08/11 11:40:42;;;;;;;4.03;1.73;;;24.70;46.60;;;;;;5112925;28;20216;-67
2023/08/11 11:43:29;;;;;;;2.15;1.70;;;24.30;49.20;;;;;;5112530;28;20214;-67
2023/08/11 11:46:19;;;;;;;3.88;1.70;;;23.90;48.90;;;;;;5112640;28;20199;-67
2023/08/11 11:49:08;;;;;;;3.90;1.90;;;24.50;50.00;;;;;;5112777;28;20194;-67
2023/08/11 11:51:57;;;;;;;3.17;1.77;;;25.00;47.30;;;;;;5112536;28;20708;-65
2023/08/11 11:54:51;;;;;;;4.22;1.88;;;26.10;48.40;;;;;;5111894;28;20195;-65
2023/08/11 11:57:39;;;;;;;3.67;1.70;;;26.70;45.50;;;;;;5112657;28;20203;-65
2023/08/11 12:00:27;;;;;;;3.92;1.55;;;26.00;48.20;;;;;;5111625;28;20235;-66
2023/08/11 12:03:15;;;;;;;2.67;1.73;;;25.80;44.10;;;;;;5112596;28;20256;-66
2023/08/11 12:06:09;;;;;;;3.78;1.83;;;24.70;45.00;;;;;;5112897;28;20206;-66
2023/08/11 12:09:02;;;;;;;2.83;1.90;;;24.70;48.90;;;;;;5111934;28;20299;-65
2023/08/11 12:11:49;;;;;;;4.18;1.60;;;24.40;46.70;;;;;;5112171;28;20232;-66
2023/08/11 12:14:37;;;;;;;3.15;1.90;;;24.20;47.60;;;;;;5112294;28;20229;-65
2023/08/11 12:17:24;;;;;;;3.22;1.50;;;24.40;45.20;;;;;;5112018;28;20394;-65
2023/08/11 12:20:12;;;;;;;3.25;1.60;;;24.50;49.90;;;;;;5112419;28;20678;-65
2023/08/11 12:23:00;;;;;;;6.72;2.00;;;24.90;47.90;;;;;;5111916;28;20199;-65
2023/08/11 12:25:48;;;;;;;3.10;1.85;;;25.10;49.40;;;;;;5112104;28;20206;-65
2023/08/11 12:28:35;;;;;;;5.85;2.10;;;25.30;46.00;;;;;;5111517;28;20274;-66
2023/08/11 12:31:26;;;;;;;4.28;1.88;;;25.60;46.00;;;;;;5110238;28;20201;-65
2023/08/11 12:34:13;;;;;;;3.35;1.98;;;25.80;48.00;;;;;;5111691;28;20624;-66
2023/08/11 12:37:00;;;;;;;3.80;1.75;;;25.60;45.20;;;;;;5111769;28;20198;-67
2023/08/11 12:40:09;;;;;;;4.20;1.88;;;25.00;46.20;;;;;;5111097;28;20297;-66
2023/08/11 12:42:59;;;;;;;3.28;1.50;;;25.20;50.20;;;;;;5111757;28;20240;-66
2023/08/11 12:45:54;;;;;;;3.03;1.98;;;25.30;45.40;;;;;;5111884;28;20571;-66
2023/08/11 12:48:42;;;;;;;5.07;1.75;;;25.60;46.00;;;;;;5111750;28;20680;-66
2023/08/11 12:51:50;;;;;;;2.05;1.58;;;25.90;50.50;;;;;;5111651;28;20215;-66
2023/08/11 12:54:37;;;;;;;3.47;1.98;;;25.90;43.60;;;;;;5111623;28;20202;-66
2023/08/11 12:57:27;;;;;;;3.42;1.90;;;26.70;46.50;;;;;;5111993;28;20206;-66
2023/08/11 13:00:16;;;;;;;2.40;1.55;;;27.40;48.20;;;;;;5111368;28;20227;-67
2023/08/11 13:03:15;;;;;;;2.95;1.70;;;28.00;42.10;;;;;;5112203;28;20307;-66
2023/08/11 13:06:04;;;;;;;5.00;1.70;;;27.60;44.20;;;;;;5096972;28;20626;-66
2023/08/11 13:08:52;;;;;;;7.03;1.80;;;26.50;42.20;;;;;;5111565;28;20248;-66
2023/08/11 13:11:39;;;;;;;5.80;2.60;;;24.60;46.20;;;;;;5111027;28;20207;-66
2023/08/11 13:14:28;;;;;;;3.90;1.77;;;24.10;45.50;;;;;;5110012;28;20206;-66
2023/08/11 13:17:15;;;;;;;3.30;1.90;;;23.80;46.60;;;;;;5110668;28;20206;-66
2023/08/11 13:20:06;;;;;;;4.28;1.83;;;24.40;48.30;;;;;;5110731;28;20218;-66
2023/08/11 13:22:53;;;;;;;5.80;2.22;;;24.80;47.60;;;;;;5111216;28;20199;-66
2023/08/11 13:25:48;;;;;;;3.65;1.90;;;24.70;47.80;;;;;;5109963;28;20199;-67
2023/08/11 13:28:35;;;;;;;2.15;1.70;;;24.50;48.50;;;;;;5111067;28;20200;-67
2023/08/11 13:31:24;;;;;;;5.57;2.20;;;24.50;47.20;;;;;;5109942;28;20274;-66
2023/08/11 13:34:17;;;;;;;2.38;1.75;;;24.20;47.70;;;;;;5110738;28;20199;-67
2023/08/11 13:37:09;;;;;;;3.35;1.77;;;25.00;47.80;;;;;;5110868;28;20231;-66
2023/08/11 13:39:56;;;;;;;4.45;2.03;;;25.60;48.50;;;;;;5111748;28;20226;-67
2023/08/11 13:42:44;;;;;;;6.28;1.92;;;25.40;46.30;;;;;;5099699;28;20226;-66
2023/08/11 13:45:40;;;;;;;4.57;2.30;;;25.50;44.90;;;;;;5114155;28;20576;-67
2023/08/11 13:48:29;;;;;;;4.03;1.90;;;25.70;49.90;;;;;;5113906;28;20220;-67
2023/08/11 13:51:16;;;;;;;5.43;1.52;;;25.60;48.40;;;;;;5113859;28;20730;-66
2023/08/11 13:54:03;;;;;;;3.45;1.98;;;25.70;47.20;;;;;;5113997;28;20200;-67
2023/08/11 13:56:54;;;;;;;4.60;1.85;;;25.80;46.70;;;;;;5114251;28;20295;-66
2023/08/11 13:59:50;;;;;;;2.88;1.85;;;25.00;46.80;;;;;;5113794;28;20681;-66
2023/08/11 14:02:37;;;;;;;3.45;1.73;;;25.50;49.10;;;;;;5114023;28;20195;-66
2023/08/11 14:05:29;;;;;;;3.35;1.75;;;26.00;49.80;;;;;;5114632;28;20244;-66
2023/08/11 14:08:24;;;;;;;3.95;1.95;;;26.00;45.20;;;;;;5114628;28;20226;-66
2023/08/11 14:11:13;;;;;;;3.63;1.80;;;26.60;51.40;;;;;;5114119;28;20194;-66
2023/08/11 14:14:00;;;;;;;2.42;1.88;;;26.90;45.60;;;;;;5114216;28;20632;-67
2023/08/11 14:16:47;;;;;;;4.47;2.03;;;27.00;40.90;;;;;;5113747;28;20538;-66
2023/08/11 14:19:34;;;;;;;3.35;2.13;;;27.30;42.90;;;;;;5114293;28;20198;-66
2023/08/11 14:22:23;;;;;;;5.68;2.20;;;27.00;47.70;;;;;;5114236;28;20199;-66
2023/08/11 14:25:10;;;;;;;3.88;1.70;;;27.00;45.50;;;;;;5114158;28;20199;-66
2023/08/11 14:27:57;;;;;;;2.50;1.75;;;27.10;46.30;;;;;;5113596;28;20291;-66
2023/08/11 14:30:45;;;;;;;3.75;2.10;;;27.20;47.00;;;;;;5114083;28;20199;-66
2023/08/11 14:33:32;;;;;;;5.20;2.13;;;27.00;44.10;;;;;;5113954;28;20696;-66
2023/08/11 14:36:19;;;;;;;2.88;1.92;;;27.10;45.10;;;;;;5113503;28;20279;-66